sensor_id;sensor_type;location;lat;lon;timestamp;P1;durP1;ratioP1;P2;durP2;ratioP2
72949;SDS011;64868;45.710;9.590;2023-03-19T00:01:31;36.63;;;20.42;;
72949;SDS011;64868;45.710;9.590;2023-03-19T00:04:03;36.92;;;20.65;;
72949;SDS011;64868;45.710;9.590;2023-03-19T00:06:36;34.95;;;21.25;;
72949;SDS011;64868;45.710;9.590;2023-03-19T00:09:08;33.83;;;18.83;;
72949;SDS011;64868;45.710;9.590;2023-03-19T00:11:39;36.20;;;20.60;;
72949;SDS011;64868;45.710;9.590;2023-03-19T00:14:04;33.28;;;19.55;;
72949;SDS011;64868;45.710;9.590;2023-03-19T00:16:38;41.97;;;20.27;;
72949;SDS011;64868;45.710;9.590;2023-03-19T00:19:11;33.42;;;19.55;;
72949;SDS011;64868;45.710;9.590;2023-03-19T00:21:41;32.88;;;19.13;;
72949;SDS011;64868;45.710;9.590;2023-03-19T00:24:14;35.05;;;19.80;;
72949;SDS011;64868;45.710;9.590;2023-03-19T00:26:43;32.85;;;19.95;;
72949;SDS011;64868;45.710;9.590;2023-03-19T00:29:14;33.08;;;18.70;;
72949;SDS011;64868;45.710;9.590;2023-03-19T00:31:44;31.65;;;17.85;;
72949;SDS011;64868;45.710;9.590;2023-03-19T00:34:14;35.08;;;20.25;;
72949;SDS011;64868;45.710;9.590;2023-03-19T00:36:47;33.00;;;18.80;;
72949;SDS011;64868;45.710;9.590;2023-03-19T00:39:19;35.35;;;19.67;;
72949;SDS011;64868;45.710;9.590;2023-03-19T00:41:50;33.63;;;18.52;;
72949;SDS011;64868;45.710;9.590;2023-03-19T00:44:20;31.88;;;18.90;;
72949;SDS011;64868;45.710;9.590;2023-03-19T00:46:50;32.08;;;18.35;;
72949;SDS011;64868;45.710;9.590;2023-03-19T00:49:20;32.55;;;19.27;;
72949;SDS011;64868;45.710;9.590;2023-03-19T00:51:53;32.42;;;19.00;;
72949;SDS011;64868;45.710;9.590;2023-03-19T00:54:25;33.38;;;18.90;;
72949;SDS011;64868;45.710;9.590;2023-03-19T00:56:58;32.88;;;19.55;;
72949;SDS011;64868;45.710;9.590;2023-03-19T00:59:28;33.45;;;19.58;;
72949;SDS011;64868;45.710;9.590;2023-03-19T01:02:01;34.13;;;19.58;;
72949;SDS011;64868;45.710;9.590;2023-03-19T01:04:33;33.78;;;19.33;;
72949;SDS011;64868;45.710;9.590;2023-03-19T01:07:04;31.90;;;18.98;;
72949;SDS011;64868;45.710;9.590;2023-03-19T01:09:36;34.08;;;19.17;;
72949;SDS011;64868;45.710;9.590;2023-03-19T01:12:09;34.65;;;19.52;;
72949;SDS011;64868;45.710;9.590;2023-03-19T01:14:36;34.33;;;19.50;;
72949;SDS011;64868;45.710;9.590;2023-03-19T01:17:09;37.22;;;20.48;;
72949;SDS011;64868;45.710;9.590;2023-03-19T01:19:39;34.67;;;19.35;;
72949;SDS011;64868;45.710;9.590;2023-03-19T01:22:09;35.55;;;19.48;;
72949;SDS011;64868;45.710;9.590;2023-03-19T01:24:42;33.08;;;18.55;;
72949;SDS011;64868;45.710;9.590;2023-03-19T01:27:15;32.88;;;18.40;;
72949;SDS011;64868;45.710;9.590;2023-03-19T01:29:47;32.08;;;19.00;;
72949;SDS011;64868;45.710;9.590;2023-03-19T01:32:18;31.33;;;17.45;;
72949;SDS011;64868;45.710;9.590;2023-03-19T01:34:48;34.42;;;19.23;;
72949;SDS011;64868;45.710;9.590;2023-03-19T01:37:18;31.75;;;18.50;;
72949;SDS011;64868;45.710;9.590;2023-03-19T01:39:51;33.53;;;19.20;;
72949;SDS011;64868;45.710;9.590;2023-03-19T01:42:23;34.25;;;18.92;;
72949;SDS011;64868;45.710;9.590;2023-03-19T01:44:55;31.05;;;19.13;;
72949;SDS011;64868;45.710;9.590;2023-03-19T01:47:34;34.72;;;18.98;;
72949;SDS011;64868;45.710;9.590;2023-03-19T01:50:09;35.58;;;19.20;;
72949;SDS011;64868;45.710;9.590;2023-03-19T01:52:52;34.30;;;19.00;;
72949;SDS011;64868;45.710;9.590;2023-03-19T01:55:24;31.65;;;18.10;;
72949;SDS011;64868;45.710;9.590;2023-03-19T01:57:55;31.55;;;18.00;;
72949;SDS011;64868;45.710;9.590;2023-03-19T02:00:27;34.05;;;19.00;;
72949;SDS011;64868;45.710;9.590;2023-03-19T02:02:59;33.20;;;20.00;;
72949;SDS011;64868;45.710;9.590;2023-03-19T02:05:30;34.80;;;20.02;;
72949;SDS011;64868;45.710;9.590;2023-03-19T02:08:04;34.88;;;19.70;;
72949;SDS011;64868;45.710;9.590;2023-03-19T02:10:35;31.67;;;18.65;;
72949;SDS011;64868;45.710;9.590;2023-03-19T02:13:08;31.83;;;18.55;;
72949;SDS011;64868;45.710;9.590;2023-03-19T02:15:41;31.50;;;20.10;;
72949;SDS011;64868;45.710;9.590;2023-03-19T02:18:12;35.35;;;19.25;;
72949;SDS011;64868;45.710;9.590;2023-03-19T02:20:45;34.65;;;19.10;;
72949;SDS011;64868;45.710;9.590;2023-03-19T02:23:42;34.72;;;19.65;;
72949;SDS011;64868;45.710;9.590;2023-03-19T02:26:20;32.90;;;18.13;;
72949;SDS011;64868;45.710;9.590;2023-03-19T02:28:55;30.90;;;18.33;;
72949;SDS011;64868;45.710;9.590;2023-03-19T02:31:21;30.05;;;18.45;;
72949;SDS011;64868;45.710;9.590;2023-03-19T02:33:57;31.00;;;18.88;;
72949;SDS011;64868;45.710;9.590;2023-03-19T02:36:28;34.35;;;18.83;;
72949;SDS011;64868;45.710;9.590;2023-03-19T02:39:03;32.97;;;18.42;;
72949;SDS011;64868;45.710;9.590;2023-03-19T02:41:40;34.33;;;19.55;;
72949;SDS011;64868;45.710;9.590;2023-03-19T02:44:13;32.72;;;19.15;;
72949;SDS011;64868;45.710;9.590;2023-03-19T02:46:46;34.33;;;17.90;;
72949;SDS011;64868;45.710;9.590;2023-03-19T02:49:16;34.55;;;19.70;;
72949;SDS011;64868;45.710;9.590;2023-03-19T02:51:46;32.05;;;18.60;;
72949;SDS011;64868;45.710;9.590;2023-03-19T02:54:18;31.48;;;18.48;;
72949;SDS011;64868;45.710;9.590;2023-03-19T02:56:51;33.17;;;17.42;;
72949;SDS011;64868;45.710;9.590;2023-03-19T02:59:21;35.78;;;19.58;;
72949;SDS011;64868;45.710;9.590;2023-03-19T03:01:54;30.50;;;18.95;;
72949;SDS011;64868;45.710;9.590;2023-03-19T03:04:27;32.53;;;18.38;;
72949;SDS011;64868;45.710;9.590;2023-03-19T03:07:00;33.70;;;18.75;;
72949;SDS011;64868;45.710;9.590;2023-03-19T03:09:30;30.08;;;18.42;;
72949;SDS011;64868;45.710;9.590;2023-03-19T03:12:00;29.40;;;17.50;;
72949;SDS011;64868;45.710;9.590;2023-03-19T03:14:32;33.58;;;18.92;;
72949;SDS011;64868;45.710;9.590;2023-03-19T03:17:05;31.05;;;18.92;;
72949;SDS011;64868;45.710;9.590;2023-03-19T03:19:38;34.72;;;19.77;;
72949;SDS011;64868;45.710;9.590;2023-03-19T03:22:08;30.13;;;17.60;;
72949;SDS011;64868;45.710;9.590;2023-03-19T03:24:38;33.67;;;18.02;;
72949;SDS011;64868;45.710;9.590;2023-03-19T03:27:11;33.03;;;18.58;;
72949;SDS011;64868;45.710;9.590;2023-03-19T03:29:43;32.70;;;18.77;;
72949;SDS011;64868;45.710;9.590;2023-03-19T03:32:14;32.40;;;17.67;;
72949;SDS011;64868;45.710;9.590;2023-03-19T03:34:44;32.15;;;18.80;;
72949;SDS011;64868;45.710;9.590;2023-03-19T03:37:17;31.60;;;17.15;;
72949;SDS011;64868;45.710;9.590;2023-03-19T03:39:49;30.58;;;17.45;;
72949;SDS011;64868;45.710;9.590;2023-03-19T03:42:22;32.40;;;19.42;;
72949;SDS011;64868;45.710;9.590;2023-03-19T03:44:52;29.65;;;17.67;;
72949;SDS011;64868;45.710;9.590;2023-03-19T03:49:52;33.40;;;17.83;;
72949;SDS011;64868;45.710;9.590;2023-03-19T03:52:24;31.98;;;18.83;;
72949;SDS011;64868;45.710;9.590;2023-03-19T03:54:57;39.25;;;19.17;;
72949;SDS011;64868;45.710;9.590;2023-03-19T03:57:30;32.92;;;19.35;;
72949;SDS011;64868;45.710;9.590;2023-03-19T04:00:00;32.28;;;18.50;;
72949;SDS011;64868;45.710;9.590;2023-03-19T04:02:29;34.35;;;19.33;;
72949;SDS011;64868;45.710;9.590;2023-03-19T04:05:01;33.05;;;18.90;;
72949;SDS011;64868;45.710;9.590;2023-03-19T04:07:34;31.10;;;17.98;;
72949;SDS011;64868;45.710;9.590;2023-03-19T04:10:08;32.33;;;18.15;;
72949;SDS011;64868;45.710;9.590;2023-03-19T04:12:41;32.53;;;18.77;;
72949;SDS011;64868;45.710;9.590;2023-03-19T04:15:12;30.25;;;18.67;;
72949;SDS011;64868;45.710;9.590;2023-03-19T04:17:44;33.78;;;18.38;;
72949;SDS011;64868;45.710;9.590;2023-03-19T04:20:17;34.47;;;19.85;;
72949;SDS011;64868;45.710;9.590;2023-03-19T04:22:50;31.70;;;17.50;;
72949;SDS011;64868;45.710;9.590;2023-03-19T04:25:17;30.63;;;18.85;;
72949;SDS011;64868;45.710;9.590;2023-03-19T04:27:50;34.15;;;19.40;;
72949;SDS011;64868;45.710;9.590;2023-03-19T04:30:20;30.13;;;18.55;;
72949;SDS011;64868;45.710;9.590;2023-03-19T04:32:50;35.72;;;20.00;;
72949;SDS011;64868;45.710;9.590;2023-03-19T04:35:23;32.08;;;18.80;;
72949;SDS011;64868;45.710;9.590;2023-03-19T04:37:55;32.70;;;19.15;;
72949;SDS011;64868;45.710;9.590;2023-03-19T04:40:25;29.95;;;18.00;;
72949;SDS011;64868;45.710;9.590;2023-03-19T04:42:56;33.95;;;18.70;;
72949;SDS011;64868;45.710;9.590;2023-03-19T04:45:28;33.53;;;19.23;;
72949;SDS011;64868;45.710;9.590;2023-03-19T04:48:01;32.33;;;18.23;;
72949;SDS011;64868;45.710;9.590;2023-03-19T04:50:33;30.40;;;16.98;;
72949;SDS011;64868;45.710;9.590;2023-03-19T04:53:06;31.20;;;18.75;;
72949;SDS011;64868;45.710;9.590;2023-03-19T04:55:37;33.72;;;19.85;;
72949;SDS011;64868;45.710;9.590;2023-03-19T04:58:09;30.42;;;18.88;;
72949;SDS011;64868;45.710;9.590;2023-03-19T05:00:37;33.50;;;19.38;;
72949;SDS011;64868;45.710;9.590;2023-03-19T05:03:07;33.10;;;18.13;;
72949;SDS011;64868;45.710;9.590;2023-03-19T05:05:40;30.17;;;18.13;;
72949;SDS011;64868;45.710;9.590;2023-03-19T05:08:10;33.67;;;18.02;;
72949;SDS011;64868;45.710;9.590;2023-03-19T05:10:43;33.33;;;18.77;;
72949;SDS011;64868;45.710;9.590;2023-03-19T05:13:13;34.78;;;19.35;;
72949;SDS011;64868;45.710;9.590;2023-03-19T05:15:46;38.28;;;20.10;;
72949;SDS011;64868;45.710;9.590;2023-03-19T05:18:21;31.40;;;18.67;;
72949;SDS011;64868;45.710;9.590;2023-03-19T05:20:52;33.85;;;19.20;;
72949;SDS011;64868;45.710;9.590;2023-03-19T05:23:22;29.00;;;17.92;;
72949;SDS011;64868;45.710;9.590;2023-03-19T05:25:52;31.05;;;19.13;;
72949;SDS011;64868;45.710;9.590;2023-03-19T05:28:27;29.25;;;18.02;;
72949;SDS011;64868;45.710;9.590;2023-03-19T05:30:59;31.10;;;17.92;;
72949;SDS011;64868;45.710;9.590;2023-03-19T05:33:33;31.60;;;18.30;;
72949;SDS011;64868;45.710;9.590;2023-03-19T05:36:03;32.42;;;18.73;;
72949;SDS011;64868;45.710;9.590;2023-03-19T05:38:36;31.08;;;19.45;;
72949;SDS011;64868;45.710;9.590;2023-03-19T05:41:08;32.65;;;19.52;;
72949;SDS011;64868;45.710;9.590;2023-03-19T05:43:39;33.95;;;20.17;;
72949;SDS011;64868;45.710;9.590;2023-03-19T05:46:11;33.63;;;19.10;;
72949;SDS011;64868;45.710;9.590;2023-03-19T05:48:41;29.35;;;18.35;;
72949;SDS011;64868;45.710;9.590;2023-03-19T05:51:14;32.55;;;18.95;;
72949;SDS011;64868;45.710;9.590;2023-03-19T05:53:44;29.75;;;16.98;;
72949;SDS011;64868;45.710;9.590;2023-03-19T05:56:14;33.33;;;19.08;;
72949;SDS011;64868;45.710;9.590;2023-03-19T05:58:44;28.10;;;17.85;;
72949;SDS011;64868;45.710;9.590;2023-03-19T06:01:17;35.10;;;19.95;;
72949;SDS011;64868;45.710;9.590;2023-03-19T06:03:50;30.88;;;17.75;;
72949;SDS011;64868;45.710;9.590;2023-03-19T06:06:18;38.42;;;19.08;;
72949;SDS011;64868;45.710;9.590;2023-03-19T06:08:48;35.90;;;19.30;;
72949;SDS011;64868;45.710;9.590;2023-03-19T06:11:21;31.58;;;18.75;;
72949;SDS011;64868;45.710;9.590;2023-03-19T06:13:51;35.00;;;19.98;;
72949;SDS011;64868;45.710;9.590;2023-03-19T06:16:23;33.88;;;17.15;;
72949;SDS011;64868;45.710;9.590;2023-03-19T06:18:54;31.05;;;18.77;;
72949;SDS011;64868;45.710;9.590;2023-03-19T06:21:26;33.92;;;20.02;;
72949;SDS011;64868;45.710;9.590;2023-03-19T06:23:57;31.05;;;18.33;;
72949;SDS011;64868;45.710;9.590;2023-03-19T06:26:27;31.80;;;19.00;;
72949;SDS011;64868;45.710;9.590;2023-03-19T06:28:59;31.48;;;19.10;;
72949;SDS011;64868;45.710;9.590;2023-03-19T06:31:30;34.17;;;18.90;;
72949;SDS011;64868;45.710;9.590;2023-03-19T06:34:02;31.77;;;19.05;;
72949;SDS011;64868;45.710;9.590;2023-03-19T06:36:35;30.33;;;17.67;;
72949;SDS011;64868;45.710;9.590;2023-03-19T06:39:05;31.02;;;18.90;;
72949;SDS011;64868;45.710;9.590;2023-03-19T06:41:37;31.50;;;18.25;;
72949;SDS011;64868;45.710;9.590;2023-03-19T06:44:05;33.13;;;18.30;;
72949;SDS011;64868;45.710;9.590;2023-03-19T06:46:38;31.48;;;19.40;;
72949;SDS011;64868;45.710;9.590;2023-03-19T06:49:10;36.33;;;18.75;;
72949;SDS011;64868;45.710;9.590;2023-03-19T06:51:43;28.52;;;17.88;;
72949;SDS011;64868;45.710;9.590;2023-03-19T06:54:15;32.13;;;17.92;;
72949;SDS011;64868;45.710;9.590;2023-03-19T06:56:43;29.65;;;18.70;;
72949;SDS011;64868;45.710;9.590;2023-03-19T06:59:15;31.85;;;19.33;;
72949;SDS011;64868;45.710;9.590;2023-03-19T07:01:47;32.72;;;17.55;;
72949;SDS011;64868;45.710;9.590;2023-03-19T07:04:20;30.40;;;18.25;;
72949;SDS011;64868;45.710;9.590;2023-03-19T07:06:50;31.10;;;18.92;;
72949;SDS011;64868;45.710;9.590;2023-03-19T07:09:20;29.70;;;18.60;;
72949;SDS011;64868;45.710;9.590;2023-03-19T07:11:53;30.17;;;16.95;;
72949;SDS011;64868;45.710;9.590;2023-03-19T07:14:26;29.40;;;18.58;;
72949;SDS011;64868;45.710;9.590;2023-03-19T07:16:56;31.88;;;17.70;;
72949;SDS011;64868;45.710;9.590;2023-03-19T07:19:28;29.45;;;18.48;;
72949;SDS011;64868;45.710;9.590;2023-03-19T07:21:59;30.17;;;18.70;;
72949;SDS011;64868;45.710;9.590;2023-03-19T07:24:31;29.58;;;18.52;;
72949;SDS011;64868;45.710;9.590;2023-03-19T07:27:04;28.80;;;18.63;;
72949;SDS011;64868;45.710;9.590;2023-03-19T07:29:36;27.58;;;18.92;;
72949;SDS011;64868;45.710;9.590;2023-03-19T07:32:09;28.23;;;18.75;;
72949;SDS011;64868;45.710;9.590;2023-03-19T07:34:39;28.63;;;19.45;;
72949;SDS011;64868;45.710;9.590;2023-03-19T07:37:12;33.25;;;19.40;;
72949;SDS011;64868;45.710;9.590;2023-03-19T07:39:42;31.77;;;19.75;;
72949;SDS011;64868;45.710;9.590;2023-03-19T07:42:10;26.15;;;18.08;;
72949;SDS011;64868;45.710;9.590;2023-03-19T07:44:43;27.23;;;17.20;;
72949;SDS011;64868;45.710;9.590;2023-03-19T07:47:10;25.70;;;18.45;;
72949;SDS011;64868;45.710;9.590;2023-03-19T07:49:38;25.52;;;17.67;;
72949;SDS011;64868;45.710;9.590;2023-03-19T07:52:08;30.45;;;18.33;;
72949;SDS011;64868;45.710;9.590;2023-03-19T07:54:41;28.42;;;17.88;;
72949;SDS011;64868;45.710;9.590;2023-03-19T07:57:10;28.58;;;16.90;;
72949;SDS011;64868;45.710;9.590;2023-03-19T07:59:43;23.73;;;16.80;;
72949;SDS011;64868;45.710;9.590;2023-03-19T08:02:13;22.35;;;15.52;;
72949;SDS011;64868;45.710;9.590;2023-03-19T08:04:45;27.77;;;18.77;;
72949;SDS011;64868;45.710;9.590;2023-03-19T08:07:18;26.35;;;18.15;;
72949;SDS011;64868;45.710;9.590;2023-03-19T08:09:51;24.27;;;17.30;;
72949;SDS011;64868;45.710;9.590;2023-03-19T08:12:23;27.65;;;19.05;;
72949;SDS011;64868;45.710;9.590;2023-03-19T08:14:49;24.63;;;16.42;;
72949;SDS011;64868;45.710;9.590;2023-03-19T08:17:22;24.92;;;17.58;;
72949;SDS011;64868;45.710;9.590;2023-03-19T08:19:55;26.58;;;18.38;;
72949;SDS011;64868;45.710;9.590;2023-03-19T08:22:28;28.45;;;20.15;;
72949;SDS011;64868;45.710;9.590;2023-03-19T08:24:55;27.75;;;19.77;;
72949;SDS011;64868;45.710;9.590;2023-03-19T08:27:25;28.85;;;19.83;;
72949;SDS011;64868;45.710;9.590;2023-03-19T08:29:58;27.73;;;17.98;;
72949;SDS011;64868;45.710;9.590;2023-03-19T08:32:30;31.10;;;21.38;;
72949;SDS011;64868;45.710;9.590;2023-03-19T08:35:03;28.75;;;19.90;;
72949;SDS011;64868;45.710;9.590;2023-03-19T08:37:34;30.88;;;21.63;;
72949;SDS011;64868;45.710;9.590;2023-03-19T08:40:05;33.95;;;22.10;;
72949;SDS011;64868;45.710;9.590;2023-03-19T08:42:38;31.27;;;21.77;;
72949;SDS011;64868;45.710;9.590;2023-03-19T08:45:09;27.90;;;19.80;;
72949;SDS011;64868;45.710;9.590;2023-03-19T08:47:44;28.58;;;20.50;;
72949;SDS011;64868;45.710;9.590;2023-03-19T08:50:14;33.55;;;20.95;;
72949;SDS011;64868;45.710;9.590;2023-03-19T08:55:11;30.88;;;19.73;;
72949;SDS011;64868;45.710;9.590;2023-03-19T08:57:42;28.25;;;19.70;;
72949;SDS011;64868;45.710;9.590;2023-03-19T09:00:15;30.30;;;20.25;;
72949;SDS011;64868;45.710;9.590;2023-03-19T09:02:41;28.27;;;19.50;;
72949;SDS011;64868;45.710;9.590;2023-03-19T09:05:11;31.70;;;21.02;;
72949;SDS011;64868;45.710;9.590;2023-03-19T09:07:40;30.58;;;21.13;;
72949;SDS011;64868;45.710;9.590;2023-03-19T09:10:08;30.58;;;19.42;;
72949;SDS011;64868;45.710;9.590;2023-03-19T09:12:41;31.33;;;19.65;;
72949;SDS011;64868;45.710;9.590;2023-03-19T09:15:13;28.65;;;20.25;;
72949;SDS011;64868;45.710;9.590;2023-03-19T09:17:46;28.75;;;19.25;;
72949;SDS011;64868;45.710;9.590;2023-03-19T09:20:16;29.50;;;20.60;;
72949;SDS011;64868;45.710;9.590;2023-03-19T09:22:49;30.95;;;20.45;;
72949;SDS011;64868;45.710;9.590;2023-03-19T09:25:17;30.50;;;19.55;;
72949;SDS011;64868;45.710;9.590;2023-03-19T09:27:50;29.65;;;20.00;;
72949;SDS011;64868;45.710;9.590;2023-03-19T09:30:17;29.90;;;20.83;;
72949;SDS011;64868;45.710;9.590;2023-03-19T09:32:45;31.77;;;19.58;;
72949;SDS011;64868;45.710;9.590;2023-03-19T09:35:14;32.13;;;20.58;;
72949;SDS011;64868;45.710;9.590;2023-03-19T09:37:44;29.70;;;20.95;;
72949;SDS011;64868;45.710;9.590;2023-03-19T09:40:19;33.50;;;21.50;;
72949;SDS011;64868;45.710;9.590;2023-03-19T09:45:49;32.92;;;19.45;;
72949;SDS011;64868;45.710;9.590;2023-03-19T09:48:31;41.85;;;20.65;;
72949;SDS011;64868;45.710;9.590;2023-03-19T09:51:09;31.73;;;21.08;;
72949;SDS011;64868;45.710;9.590;2023-03-19T09:53:46;33.75;;;20.63;;
72949;SDS011;64868;45.710;9.590;2023-03-19T09:56:27;32.03;;;21.08;;
72949;SDS011;64868;45.710;9.590;2023-03-19T09:58:56;33.35;;;20.55;;
72949;SDS011;64868;45.710;9.590;2023-03-19T10:01:28;31.77;;;22.05;;
72949;SDS011;64868;45.710;9.590;2023-03-19T10:10:20;29.45;;;19.45;;
72949;SDS011;64868;45.710;9.590;2023-03-19T10:15:51;28.27;;;18.73;;
72949;SDS011;64868;45.710;9.590;2023-03-19T10:18:24;28.48;;;18.52;;
72949;SDS011;64868;45.710;9.590;2023-03-19T10:21:13;29.83;;;18.10;;
72949;SDS011;64868;45.710;9.590;2023-03-19T10:23:54;25.90;;;17.02;;
72949;SDS011;64868;45.710;9.590;2023-03-19T10:32:01;29.80;;;18.65;;
72949;SDS011;64868;45.710;9.590;2023-03-19T10:34:44;30.08;;;19.02;;
72949;SDS011;64868;45.710;9.590;2023-03-19T10:37:18;28.15;;;17.92;;
72949;SDS011;64868;45.710;9.590;2023-03-19T10:39:50;31.23;;;18.00;;
72949;SDS011;64868;45.710;9.590;2023-03-19T10:42:38;24.80;;;15.35;;
72949;SDS011;64868;45.710;9.590;2023-03-19T10:45:31;29.35;;;19.35;;
72949;SDS011;64868;45.710;9.590;2023-03-19T10:48:03;39.10;;;25.98;;
72949;SDS011;64868;45.710;9.590;2023-03-19T10:50:50;26.70;;;17.92;;
72949;SDS011;64868;45.710;9.590;2023-03-19T10:53:36;26.60;;;17.98;;
72949;SDS011;64868;45.710;9.590;2023-03-19T10:56:06;26.63;;;17.77;;
72949;SDS011;64868;45.710;9.590;2023-03-19T10:58:55;27.25;;;18.13;;
72949;SDS011;64868;45.710;9.590;2023-03-19T11:01:29;27.42;;;18.15;;
72949;SDS011;64868;45.710;9.590;2023-03-19T11:04:00;27.90;;;18.77;;
72949;SDS011;64868;45.710;9.590;2023-03-19T11:06:38;25.23;;;16.98;;
72949;SDS011;64868;45.710;9.590;2023-03-19T11:11:46;27.48;;;17.85;;
72949;SDS011;64868;45.710;9.590;2023-03-19T11:14:17;24.45;;;16.85;;
72949;SDS011;64868;45.710;9.590;2023-03-19T11:16:55;29.05;;;16.33;;
72949;SDS011;64868;45.710;9.590;2023-03-19T11:19:31;27.17;;;17.13;;
72949;SDS011;64868;45.710;9.590;2023-03-19T11:27:20;26.95;;;16.90;;
72949;SDS011;64868;45.710;9.590;2023-03-19T11:30:01;22.42;;;15.98;;
72949;SDS011;64868;45.710;9.590;2023-03-19T11:32:40;28.30;;;16.60;;
72949;SDS011;64868;45.710;9.590;2023-03-19T11:35:36;27.40;;;16.23;;
72949;SDS011;64868;45.710;9.590;2023-03-19T11:38:29;25.30;;;17.42;;
72949;SDS011;64868;45.710;9.590;2023-03-19T11:44:01;24.95;;;15.02;;
72949;SDS011;64868;45.710;9.590;2023-03-19T11:46:43;24.35;;;16.55;;
72949;SDS011;64868;45.710;9.590;2023-03-19T11:55:11;25.42;;;16.13;;
72949;SDS011;64868;45.710;9.590;2023-03-19T12:00:54;26.42;;;17.65;;
72949;SDS011;64868;45.710;9.590;2023-03-19T12:09:27;23.25;;;15.85;;
72949;SDS011;64868;45.710;9.590;2023-03-19T12:12:22;31.10;;;18.17;;
72949;SDS011;64868;45.710;9.590;2023-03-19T12:15:15;27.55;;;17.98;;
72949;SDS011;64868;45.710;9.590;2023-03-19T12:18:04;26.45;;;17.52;;
72949;SDS011;64868;45.710;9.590;2023-03-19T12:23:58;27.83;;;17.20;;
72949;SDS011;64868;45.710;9.590;2023-03-19T12:26:38;24.30;;;15.77;;
72949;SDS011;64868;45.710;9.590;2023-03-19T12:29:24;25.92;;;17.63;;
72949;SDS011;64868;45.710;9.590;2023-03-19T12:32:20;24.30;;;16.00;;
72949;SDS011;64868;45.710;9.590;2023-03-19T12:34:54;26.48;;;16.98;;
72949;SDS011;64868;45.710;9.590;2023-03-19T12:40:20;28.45;;;16.27;;
72949;SDS011;64868;45.710;9.590;2023-03-19T12:42:59;26.83;;;15.60;;
72949;SDS011;64868;45.710;9.590;2023-03-19T12:45:47;22.75;;;14.73;;
72949;SDS011;64868;45.710;9.590;2023-03-19T12:48:27;24.90;;;16.58;;
72949;SDS011;64868;45.710;9.590;2023-03-19T12:51:01;24.23;;;16.63;;
72949;SDS011;64868;45.710;9.590;2023-03-19T12:56:57;24.77;;;16.73;;
72949;SDS011;64868;45.710;9.590;2023-03-19T12:59:39;27.08;;;16.48;;
72949;SDS011;64868;45.710;9.590;2023-03-19T13:02:22;26.48;;;16.67;;
72949;SDS011;64868;45.710;9.590;2023-03-19T13:04:57;24.25;;;16.15;;
72949;SDS011;64868;45.710;9.590;2023-03-19T13:10:35;24.25;;;16.42;;
72949;SDS011;64868;45.710;9.590;2023-03-19T13:13:14;24.38;;;16.70;;
72949;SDS011;64868;45.710;9.590;2023-03-19T13:22:06;22.30;;;15.18;;
72949;SDS011;64868;45.710;9.590;2023-03-19T13:24:40;26.17;;;18.10;;
72949;SDS011;64868;45.710;9.590;2023-03-19T13:27:23;27.20;;;16.83;;
72949;SDS011;64868;45.710;9.590;2023-03-19T13:33:01;26.08;;;16.55;;
72949;SDS011;64868;45.710;9.590;2023-03-19T13:35:52;24.98;;;17.05;;
72949;SDS011;64868;45.710;9.590;2023-03-19T13:38:32;24.55;;;16.60;;
72949;SDS011;64868;45.710;9.590;2023-03-19T13:41:01;27.20;;;17.00;;
72949;SDS011;64868;45.710;9.590;2023-03-19T13:52:00;26.73;;;19.25;;
72949;SDS011;64868;45.710;9.590;2023-03-19T13:54:54;25.60;;;18.00;;
72949;SDS011;64868;45.710;9.590;2023-03-19T13:57:34;24.70;;;17.00;;
72949;SDS011;64868;45.710;9.590;2023-03-19T14:00:52;25.30;;;16.25;;
72949;SDS011;64868;45.710;9.590;2023-03-19T14:03:21;26.08;;;16.50;;
72949;SDS011;64868;45.710;9.590;2023-03-19T14:05:55;22.42;;;15.40;;
72949;SDS011;64868;45.710;9.590;2023-03-19T14:08:29;24.08;;;16.13;;
72949;SDS011;64868;45.710;9.590;2023-03-19T14:11:32;20.92;;;14.13;;
72949;SDS011;64868;45.710;9.590;2023-03-19T14:14:05;23.45;;;15.07;;
72949;SDS011;64868;45.710;9.590;2023-03-19T14:16:43;22.10;;;15.32;;
72949;SDS011;64868;45.710;9.590;2023-03-19T14:19:17;23.05;;;14.52;;
72949;SDS011;64868;45.710;9.590;2023-03-19T14:24:34;23.30;;;15.02;;
72949;SDS011;64868;45.710;9.590;2023-03-19T14:27:40;22.67;;;14.40;;
72949;SDS011;64868;45.710;9.590;2023-03-19T14:30:10;21.65;;;14.57;;
72949;SDS011;64868;45.710;9.590;2023-03-19T14:33:04;22.92;;;15.18;;
72949;SDS011;64868;45.710;9.590;2023-03-19T14:35:42;22.00;;;13.38;;
72949;SDS011;64868;45.710;9.590;2023-03-19T14:38:16;19.77;;;13.07;;
72949;SDS011;64868;45.710;9.590;2023-03-19T14:41:00;21.83;;;13.80;;
72949;SDS011;64868;45.710;9.590;2023-03-19T14:52:51;21.20;;;13.30;;
72949;SDS011;64868;45.710;9.590;2023-03-19T14:55:38;21.50;;;13.07;;
72949;SDS011;64868;45.710;9.590;2023-03-19T14:58:18;19.10;;;13.48;;
72949;SDS011;64868;45.710;9.590;2023-03-19T15:00:50;19.85;;;13.18;;
72949;SDS011;64868;45.710;9.590;2023-03-19T15:03:20;21.30;;;12.45;;
72949;SDS011;64868;45.710;9.590;2023-03-19T15:05:59;20.15;;;12.90;;
72949;SDS011;64868;45.710;9.590;2023-03-19T15:08:30;18.95;;;12.05;;
72949;SDS011;64868;45.710;9.590;2023-03-19T15:19:16;17.98;;;11.95;;
72949;SDS011;64868;45.710;9.590;2023-03-19T15:22:02;17.35;;;11.68;;
72949;SDS011;64868;45.710;9.590;2023-03-19T15:24:52;18.15;;;11.32;;
72949;SDS011;64868;45.710;9.590;2023-03-19T15:27:24;17.95;;;12.23;;
72949;SDS011;64868;45.710;9.590;2023-03-19T15:29:57;19.13;;;11.68;;
72949;SDS011;64868;45.710;9.590;2023-03-19T15:32:36;18.30;;;12.00;;
72949;SDS011;64868;45.710;9.590;2023-03-19T15:35:09;16.48;;;11.18;;
72949;SDS011;64868;45.710;9.590;2023-03-19T15:37:47;17.90;;;10.98;;
72949;SDS011;64868;45.710;9.590;2023-03-19T15:40:20;19.88;;;11.70;;
72949;SDS011;64868;45.710;9.590;2023-03-19T15:42:55;20.50;;;12.82;;
72949;SDS011;64868;45.710;9.590;2023-03-19T15:45:24;16.70;;;11.18;;
72949;SDS011;64868;45.710;9.590;2023-03-19T15:50:26;20.27;;;13.30;;
72949;SDS011;64868;45.710;9.590;2023-03-19T15:52:57;18.08;;;12.15;;
72949;SDS011;64868;45.710;9.590;2023-03-19T15:55:32;20.80;;;12.10;;
72949;SDS011;64868;45.710;9.590;2023-03-19T15:58:06;21.42;;;12.50;;
72949;SDS011;64868;45.710;9.590;2023-03-19T16:00:37;21.05;;;13.32;;
72949;SDS011;64868;45.710;9.590;2023-03-19T16:03:07;19.15;;;12.30;;
72949;SDS011;64868;45.710;9.590;2023-03-19T16:05:45;19.90;;;11.60;;
72949;SDS011;64868;45.710;9.590;2023-03-19T16:08:18;20.30;;;12.57;;
72949;SDS011;64868;45.710;9.590;2023-03-19T16:10:52;17.83;;;11.27;;
72949;SDS011;64868;45.710;9.590;2023-03-19T16:13:39;20.95;;;12.82;;
72949;SDS011;64868;45.710;9.590;2023-03-19T16:18:49;22.48;;;13.80;;
72949;SDS011;64868;45.710;9.590;2023-03-19T16:21:38;21.67;;;13.55;;
72949;SDS011;64868;45.710;9.590;2023-03-19T16:24:13;19.92;;;12.82;;
72949;SDS011;64868;45.710;9.590;2023-03-19T16:27:47;18.55;;;11.63;;
72949;SDS011;64868;45.710;9.590;2023-03-19T16:30:07;20.40;;;13.32;;
72949;SDS011;64868;45.710;9.590;2023-03-19T16:32:45;19.95;;;12.57;;
72949;SDS011;64868;45.710;9.590;2023-03-19T16:35:25;21.00;;;12.18;;
72949;SDS011;64868;45.710;9.590;2023-03-19T16:38:04;20.63;;;12.05;;
72949;SDS011;64868;45.710;9.590;2023-03-19T16:40:47;18.92;;;12.02;;
72949;SDS011;64868;45.710;9.590;2023-03-19T16:43:18;21.20;;;12.73;;
72949;SDS011;64868;45.710;9.590;2023-03-19T16:46:07;22.92;;;12.13;;